sensor_id;sensor_type;location;lat;lon;timestamp;temperature;humidity
20680;DHT22;10499;47.494;7.608;2022-11-15T00:00:52;9.80;99.90
20680;DHT22;10499;47.494;7.608;2022-11-15T00:03:20;9.80;99.90
20680;DHT22;10499;47.494;7.608;2022-11-15T00:05:47;9.90;99.90
20680;DHT22;10499;47.494;7.608;2022-11-15T00:08:12;9.90;99.90
20680;DHT22;10499;47.494;7.608;2022-11-15T00:10:38;9.90;99.90
20680;DHT22;10499;47.494;7.608;2022-11-15T00:15:31;9.80;99.90
20680;DHT22;10499;47.494;7.608;2022-11-15T00:17:59;9.70;99.90
20680;DHT22;10499;47.494;7.608;2022-11-15T00:20:24;9.70;99.90
20680;DHT22;10499;47.494;7.608;2022-11-15T00:22:50;9.80;99.90
20680;DHT22;10499;47.494;7.608;2022-11-15T00:25:16;9.80;99.90
20680;DHT22;10499;47.494;7.608;2022-11-15T00:27:41;9.70;99.90
20680;DHT22;10499;47.494;7.608;2022-11-15T00:30:07;9.70;99.90
20680;DHT22;10499;47.494;7.608;2022-11-15T00:32:33;9.80;99.90
20680;DHT22;10499;47.494;7.608;2022-11-15T00:34:59;9.90;99.90
20680;DHT22;10499;47.494;7.608;2022-11-15T00:37:24;9.80;99.90
20680;DHT22;10499;47.494;7.608;2022-11-15T00:39:50;9.70;99.90
20680;DHT22;10499;47.494;7.608;2022-11-15T00:42:16;9.70;99.90
20680;DHT22;10499;47.494;7.608;2022-11-15T00:44:41;9.80;99.90
20680;DHT22;10499;47.494;7.608;2022-11-15T00:47:07;9.90;99.90
20680;DHT22;10499;47.494;7.608;2022-11-15T00:49:32;9.90;99.90
20680;DHT22;10499;47.494;7.608;2022-11-15T00:51:58;9.80;99.90
20680;DHT22;10499;47.494;7.608;2022-11-15T00:54:23;9.80;99.90
20680;DHT22;10499;47.494;7.608;2022-11-15T00:56:49;9.90;99.90
20680;DHT22;10499;47.494;7.608;2022-11-15T00:59:14;9.90;99.90
20680;DHT22;10499;47.494;7.608;2022-11-15T01:01:40;10.00;99.90
20680;DHT22;10499;47.494;7.608;2022-11-15T01:04:06;10.00;99.90
20680;DHT22;10499;47.494;7.608;2022-11-15T01:06:31;9.90;99.90
20680;DHT22;10499;47.494;7.608;2022-11-15T01:08:57;9.90;99.90
20680;DHT22;10499;47.494;7.608;2022-11-15T01:11:22;9.80;99.90
20680;DHT22;10499;47.494;7.608;2022-11-15T01:13:48;9.80;99.90
20680;DHT22;10499;47.494;7.608;2022-11-15T01:16:16;9.80;99.90
20680;DHT22;10499;47.494;7.608;2022-11-15T01:18:45;9.80;99.90
20680;DHT22;10499;47.494;7.608;2022-11-15T01:21:13;9.80;99.90
20680;DHT22;10499;47.494;7.608;2022-11-15T01:23:39;9.80;99.90
20680;DHT22;10499;47.494;7.608;2022-11-15T01:26:07;9.80;99.90
20680;DHT22;10499;47.494;7.608;2022-11-15T01:28:35;9.80;99.90
20680;DHT22;10499;47.494;7.608;2022-11-15T01:31:02;9.80;99.90
20680;DHT22;10499;47.494;7.608;2022-11-15T01:33:29;9.70;99.90
20680;DHT22;10499;47.494;7.608;2022-11-15T01:35:54;9.70;99.90
20680;DHT22;10499;47.494;7.608;2022-11-15T01:38:20;9.70;99.90
20680;DHT22;10499;47.494;7.608;2022-11-15T01:40:46;9.80;99.90
20680;DHT22;10499;47.494;7.608;2022-11-15T01:43:19;9.80;99.90
20680;DHT22;10499;47.494;7.608;2022-11-15T01:45:58;9.80;99.90
20680;DHT22;10499;47.494;7.608;2022-11-15T01:48:32;9.90;99.90
20680;DHT22;10499;47.494;7.608;2022-11-15T01:51:01;9.80;99.90
20680;DHT22;10499;47.494;7.608;2022-11-15T01:53:29;9.90;99.90
20680;DHT22;10499;47.494;7.608;2022-11-15T01:55:57;10.00;99.90
20680;DHT22;10499;47.494;7.608;2022-11-15T01:58:24;9.90;99.90
20680;DHT22;10499;47.494;7.608;2022-11-15T02:00:50;10.00;99.90
20680;DHT22;10499;47.494;7.608;2022-11-15T02:03:16;10.00;99.90
20680;DHT22;10499;47.494;7.608;2022-11-15T02:05:43;10.00;99.90
20680;DHT22;10499;47.494;7.608;2022-11-15T02:08:09;9.90;99.90
20680;DHT22;10499;47.494;7.608;2022-11-15T02:10:47;9.90;99.90
20680;DHT22;10499;47.494;7.608;2022-11-15T02:13:17;9.90;99.90
20680;DHT22;10499;47.494;7.608;2022-11-15T02:18:45;9.90;99.90
20680;DHT22;10499;47.494;7.608;2022-11-15T02:26:52;9.80;99.90
20680;DHT22;10499;47.494;7.608;2022-11-15T02:38:10;9.90;99.90
20680;DHT22;10499;47.494;7.608;2022-11-15T02:40:57;9.90;99.90
20680;DHT22;10499;47.494;7.608;2022-11-15T02:46:46;10.00;99.90
20680;DHT22;10499;47.494;7.608;2022-11-15T02:49:33;10.00;99.90
20680;DHT22;10499;47.494;7.608;2022-11-15T02:52:00;10.00;99.90
20680;DHT22;10499;47.494;7.608;2022-11-15T02:54:29;10.00;99.90
20680;DHT22;10499;47.494;7.608;2022-11-15T02:57:05;10.00;99.90
20680;DHT22;10499;47.494;7.608;2022-11-15T03:04:55;9.80;99.90
20680;DHT22;10499;47.494;7.608;2022-11-15T03:07:42;9.70;99.90
20680;DHT22;10499;47.494;7.608;2022-11-15T03:10:14;9.80;99.90
20680;DHT22;10499;47.494;7.608;2022-11-15T03:12:51;9.80;99.90
20680;DHT22;10499;47.494;7.608;2022-11-15T03:15:32;9.80;99.90
20680;DHT22;10499;47.494;7.608;2022-11-15T03:18:02;9.90;99.90
20680;DHT22;10499;47.494;7.608;2022-11-15T03:20:30;9.90;99.90
20680;DHT22;10499;47.494;7.608;2022-11-15T03:23:05;9.80;99.90
20680;DHT22;10499;47.494;7.608;2022-11-15T03:25:33;9.80;99.90
20680;DHT22;10499;47.494;7.608;2022-11-15T03:28:02;9.80;99.90
20680;DHT22;10499;47.494;7.608;2022-11-15T03:30:31;9.80;99.90
20680;DHT22;10499;47.494;7.608;2022-11-15T03:32:58;9.80;99.90
20680;DHT22;10499;47.494;7.608;2022-11-15T03:35:27;9.80;99.90
20680;DHT22;10499;47.494;7.608;2022-11-15T03:40:41;9.80;99.90
20680;DHT22;10499;47.494;7.608;2022-11-15T03:43:22;9.90;99.90
20680;DHT22;10499;47.494;7.608;2022-11-15T03:46:25;9.80;99.90
20680;DHT22;10499;47.494;7.608;2022-11-15T03:48:54;9.80;99.90
20680;DHT22;10499;47.494;7.608;2022-11-15T03:51:22;9.80;99.90
20680;DHT22;10499;47.494;7.608;2022-11-15T03:53:48;9.80;99.90
20680;DHT22;10499;47.494;7.608;2022-11-15T03:56:13;9.80;99.90
20680;DHT22;10499;47.494;7.608;2022-11-15T03:58:39;9.80;99.90
20680;DHT22;10499;47.494;7.608;2022-11-15T04:01:05;9.80;99.90
20680;DHT22;10499;47.494;7.608;2022-11-15T04:03:30;9.80;99.90
20680;DHT22;10499;47.494;7.608;2022-11-15T04:05:56;9.80;99.90
20680;DHT22;10499;47.494;7.608;2022-11-15T04:08:21;9.90;99.90
20680;DHT22;10499;47.494;7.608;2022-11-15T04:10:49;9.80;99.90
20680;DHT22;10499;47.494;7.608;2022-11-15T04:13:14;9.80;99.90
20680;DHT22;10499;47.494;7.608;2022-11-15T04:15:40;9.80;99.90
20680;DHT22;10499;47.494;7.608;2022-11-15T04:18:06;9.70;99.90
20680;DHT22;10499;47.494;7.608;2022-11-15T04:20:32;9.70;99.90
20680;DHT22;10499;47.494;7.608;2022-11-15T04:23:21;9.70;99.90
20680;DHT22;10499;47.494;7.608;2022-11-15T04:26:11;9.70;99.90
20680;DHT22;10499;47.494;7.608;2022-11-15T04:28:37;9.70;99.90
20680;DHT22;10499;47.494;7.608;2022-11-15T04:31:26;9.70;99.90
20680;DHT22;10499;47.494;7.608;2022-11-15T04:33:52;9.70;99.90
20680;DHT22;10499;47.494;7.608;2022-11-15T04:36:19;9.70;99.90
20680;DHT22;10499;47.494;7.608;2022-11-15T04:39:03;9.70;99.90
20680;DHT22;10499;47.494;7.608;2022-11-15T04:41:29;9.70;99.90
20680;DHT22;10499;47.494;7.608;2022-11-15T04:43:55;9.60;99.90
20680;DHT22;10499;47.494;7.608;2022-11-15T04:46:21;9.70;99.90
20680;DHT22;10499;47.494;7.608;2022-11-15T04:48:47;9.70;99.90
20680;DHT22;10499;47.494;7.608;2022-11-15T04:51:12;9.60;99.90
20680;DHT22;10499;47.494;7.608;2022-11-15T04:53:38;9.70;99.90
20680;DHT22;10499;47.494;7.608;2022-11-15T04:56:04;9.70;99.90
20680;DHT22;10499;47.494;7.608;2022-11-15T04:58:30;9.60;99.90
20680;DHT22;10499;47.494;7.608;2022-11-15T05:00:55;9.60;99.90
20680;DHT22;10499;47.494;7.608;2022-11-15T05:03:21;9.70;99.90
20680;DHT22;10499;47.494;7.608;2022-11-15T05:06:06;9.60;99.90
20680;DHT22;10499;47.494;7.608;2022-11-15T05:08:32;9.60;99.90
20680;DHT22;10499;47.494;7.608;2022-11-15T05:10:57;9.60;99.90
20680;DHT22;10499;47.494;7.608;2022-11-15T05:13:23;9.60;99.90
20680;DHT22;10499;47.494;7.608;2022-11-15T05:15:49;9.60;99.90
20680;DHT22;10499;47.494;7.608;2022-11-15T05:18:14;9.70;99.90
20680;DHT22;10499;47.494;7.608;2022-11-15T05:20:40;9.70;99.90
20680;DHT22;10499;47.494;7.608;2022-11-15T05:23:05;9.60;99.90
20680;DHT22;10499;47.494;7.608;2022-11-15T05:25:31;9.70;99.90
20680;DHT22;10499;47.494;7.608;2022-11-15T05:27:57;9.70;99.90
20680;DHT22;10499;47.494;7.608;2022-11-15T05:30:22;9.70;99.90
20680;DHT22;10499;47.494;7.608;2022-11-15T05:32:48;9.70;99.90
20680;DHT22;10499;47.494;7.608;2022-11-15T05:35:34;9.80;99.90
20680;DHT22;10499;47.494;7.608;2022-11-15T05:38:02;9.60;99.90
20680;DHT22;10499;47.494;7.608;2022-11-15T05:40:29;9.60;99.90
20680;DHT22;10499;47.494;7.608;2022-11-15T05:42:56;9.70;99.90
20680;DHT22;10499;47.494;7.608;2022-11-15T05:45:22;9.60;99.90
20680;DHT22;10499;47.494;7.608;2022-11-15T05:47:48;9.60;99.90
20680;DHT22;10499;47.494;7.608;2022-11-15T05:50:16;9.60;99.90
20680;DHT22;10499;47.494;7.608;2022-11-15T05:52:49;9.60;99.90
20680;DHT22;10499;47.494;7.608;2022-11-15T05:55:23;9.60;99.90
20680;DHT22;10499;47.494;7.608;2022-11-15T05:57:51;9.60;99.90
20680;DHT22;10499;47.494;7.608;2022-11-15T06:00:17;9.60;99.90
20680;DHT22;10499;47.494;7.608;2022-11-15T06:02:43;9.70;99.90
20680;DHT22;10499;47.494;7.608;2022-11-15T06:05:08;9.70;99.90
20680;DHT22;10499;47.494;7.608;2022-11-15T06:07:34;9.60;99.90
20680;DHT22;10499;47.494;7.608;2022-11-15T06:09:59;9.70;99.90
20680;DHT22;10499;47.494;7.608;2022-11-15T06:12:25;9.70;99.90
20680;DHT22;10499;47.494;7.608;2022-11-15T06:14:51;9.60;99.90
20680;DHT22;10499;47.494;7.608;2022-11-15T06:17:16;9.60;99.90
20680;DHT22;10499;47.494;7.608;2022-11-15T06:19:42;9.60;99.90
20680;DHT22;10499;47.494;7.608;2022-11-15T06:22:07;9.60;99.90
20680;DHT22;10499;47.494;7.608;2022-11-15T06:24:34;9.60;99.90
20680;DHT22;10499;47.494;7.608;2022-11-15T06:27:00;9.60;99.90
20680;DHT22;10499;47.494;7.608;2022-11-15T06:29:25;9.60;99.90
20680;DHT22;10499;47.494;7.608;2022-11-15T06:31:51;9.60;99.90
20680;DHT22;10499;47.494;7.608;2022-11-15T06:34:17;9.70;99.90
20680;DHT22;10499;47.494;7.608;2022-11-15T06:36:43;9.70;99.90
20680;DHT22;10499;47.494;7.608;2022-11-15T06:39:09;9.70;99.90
20680;DHT22;10499;47.494;7.608;2022-11-15T06:41:35;9.80;99.90
20680;DHT22;10499;47.494;7.608;2022-11-15T06:44:02;9.80;99.90
20680;DHT22;10499;47.494;7.608;2022-11-15T06:46:28;9.80;99.90
20680;DHT22;10499;47.494;7.608;2022-11-15T06:48:54;9.80;99.90
20680;DHT22;10499;47.494;7.608;2022-11-15T06:51:19;9.70;99.90
20680;DHT22;10499;47.494;7.608;2022-11-15T06:53:45;9.70;99.90
20680;DHT22;10499;47.494;7.608;2022-11-15T06:56:11;9.70;99.90
20680;DHT22;10499;47.494;7.608;2022-11-15T06:58:36;9.70;99.90
20680;DHT22;10499;47.494;7.608;2022-11-15T07:01:08;9.70;99.90
20680;DHT22;10499;47.494;7.608;2022-11-15T07:03:41;9.70;99.90
20680;DHT22;10499;47.494;7.608;2022-11-15T07:06:08;9.80;99.90
20680;DHT22;10499;47.494;7.608;2022-11-15T07:08:35;9.80;99.90
20680;DHT22;10499;47.494;7.608;2022-11-15T07:11:05;9.80;99.90
20680;DHT22;10499;47.494;7.608;2022-11-15T07:13:33;9.80;99.90
20680;DHT22;10499;47.494;7.608;2022-11-15T07:16:05;9.80;99.90
20680;DHT22;10499;47.494;7.608;2022-11-15T07:18:39;9.80;99.90
20680;DHT22;10499;47.494;7.608;2022-11-15T07:21:09;9.80;99.90
20680;DHT22;10499;47.494;7.608;2022-11-15T07:23:37;9.90;99.90
20680;DHT22;10499;47.494;7.608;2022-11-15T07:26:06;9.90;99.90
20680;DHT22;10499;47.494;7.608;2022-11-15T07:28:32;9.90;99.90
20680;DHT22;10499;47.494;7.608;2022-11-15T07:31:05;9.90;99.90
20680;DHT22;10499;47.494;7.608;2022-11-15T07:33:31;9.90;99.90
20680;DHT22;10499;47.494;7.608;2022-11-15T07:36:04;10.00;99.90
20680;DHT22;10499;47.494;7.608;2022-11-15T07:38:31;10.00;99.90
20680;DHT22;10499;47.494;7.608;2022-11-15T07:41:02;10.10;99.90
20680;DHT22;10499;47.494;7.608;2022-11-15T07:43:27;10.10;99.90
20680;DHT22;10499;47.494;7.608;2022-11-15T07:45:55;10.10;99.90
20680;DHT22;10499;47.494;7.608;2022-11-15T07:48:21;10.00;99.90
20680;DHT22;10499;47.494;7.608;2022-11-15T07:50:47;10.10;99.90
20680;DHT22;10499;47.494;7.608;2022-11-15T07:53:12;10.10;99.90
20680;DHT22;10499;47.494;7.608;2022-11-15T07:55:40;10.10;99.90
20680;DHT22;10499;47.494;7.608;2022-11-15T07:58:08;10.00;99.90
20680;DHT22;10499;47.494;7.608;2022-11-15T08:00:34;10.10;99.90
20680;DHT22;10499;47.494;7.608;2022-11-15T08:03:10;10.10;99.90
20680;DHT22;10499;47.494;7.608;2022-11-15T08:05:37;10.20;99.90
20680;DHT22;10499;47.494;7.608;2022-11-15T08:08:04;10.20;99.90
20680;DHT22;10499;47.494;7.608;2022-11-15T08:10:31;10.20;99.90
20680;DHT22;10499;47.494;7.608;2022-11-15T08:13:05;10.20;99.90
20680;DHT22;10499;47.494;7.608;2022-11-15T08:15:31;10.30;99.90
20680;DHT22;10499;47.494;7.608;2022-11-15T08:17:59;10.20;99.90
20680;DHT22;10499;47.494;7.608;2022-11-15T08:20:27;10.30;99.90
20680;DHT22;10499;47.494;7.608;2022-11-15T08:22:56;10.20;99.90
20680;DHT22;10499;47.494;7.608;2022-11-15T08:25:22;10.10;99.90
20680;DHT22;10499;47.494;7.608;2022-11-15T08:27:51;10.20;99.90
20680;DHT22;10499;47.494;7.608;2022-11-15T08:30:17;10.30;99.90
20680;DHT22;10499;47.494;7.608;2022-11-15T08:32:42;10.40;99.90
20680;DHT22;10499;47.494;7.608;2022-11-15T08:35:08;10.40;99.90
20680;DHT22;10499;47.494;7.608;2022-11-15T08:37:34;10.40;99.90
20680;DHT22;10499;47.494;7.608;2022-11-15T08:40:00;10.50;99.90
20680;DHT22;10499;47.494;7.608;2022-11-15T08:42:25;10.60;99.90
20680;DHT22;10499;47.494;7.608;2022-11-15T08:44:51;10.50;99.90
20680;DHT22;10499;47.494;7.608;2022-11-15T08:47:17;10.60;99.90
20680;DHT22;10499;47.494;7.608;2022-11-15T08:49:42;10.60;99.90
20680;DHT22;10499;47.494;7.608;2022-11-15T08:52:08;10.60;99.90
20680;DHT22;10499;47.494;7.608;2022-11-15T08:54:33;10.60;99.90
20680;DHT22;10499;47.494;7.608;2022-11-15T08:56:59;10.60;99.90
20680;DHT22;10499;47.494;7.608;2022-11-15T08:59:25;10.60;99.90
20680;DHT22;10499;47.494;7.608;2022-11-15T09:01:51;10.60;99.90
20680;DHT22;10499;47.494;7.608;2022-11-15T09:04:16;10.70;99.90
20680;DHT22;10499;47.494;7.608;2022-11-15T09:06:42;10.70;99.90
20680;DHT22;10499;47.494;7.608;2022-11-15T09:09:07;10.70;99.90
20680;DHT22;10499;47.494;7.608;2022-11-15T09:11:33;10.80;99.90
20680;DHT22;10499;47.494;7.608;2022-11-15T09:13:59;10.80;99.90
20680;DHT22;10499;47.494;7.608;2022-11-15T09:16:24;10.80;99.90
20680;DHT22;10499;47.494;7.608;2022-11-15T09:18:50;10.90;99.90
20680;DHT22;10499;47.494;7.608;2022-11-15T09:21:16;10.90;99.90
20680;DHT22;10499;47.494;7.608;2022-11-15T09:23:41;10.90;99.90
20680;DHT22;10499;47.494;7.608;2022-11-15T09:26:07;10.90;99.90
20680;DHT22;10499;47.494;7.608;2022-11-15T09:28:33;10.80;99.90
20680;DHT22;10499;47.494;7.608;2022-11-15T09:31:01;10.90;99.90
20680;DHT22;10499;47.494;7.608;2022-11-15T09:33:27;10.80;99.90
20680;DHT22;10499;47.494;7.608;2022-11-15T09:35:53;10.80;99.90
20680;DHT22;10499;47.494;7.608;2022-11-15T09:38:19;10.70;99.90
20680;DHT22;10499;47.494;7.608;2022-11-15T09:40:48;10.70;99.90
20680;DHT22;10499;47.494;7.608;2022-11-15T09:43:35;10.80;99.90
20680;DHT22;10499;47.494;7.608;2022-11-15T09:46:32;10.80;99.90
20680;DHT22;10499;47.494;7.608;2022-11-15T09:49:02;11.00;99.90
20680;DHT22;10499;47.494;7.608;2022-11-15T09:56:36;11.10;99.90
20680;DHT22;10499;47.494;7.608;2022-11-15T10:05:00;11.20;99.90
20680;DHT22;10499;47.494;7.608;2022-11-15T10:07:32;11.30;99.90
20680;DHT22;10499;47.494;7.608;2022-11-15T10:12:32;11.40;99.90
20680;DHT22;10499;47.494;7.608;2022-11-15T10:15:10;11.40;99.90
20680;DHT22;10499;47.494;7.608;2022-11-15T10:17:54;11.40;99.90
20680;DHT22;10499;47.494;7.608;2022-11-15T10:20:24;11.50;99.90
20680;DHT22;10499;47.494;7.608;2022-11-15T10:22:51;11.60;99.90
20680;DHT22;10499;47.494;7.608;2022-11-15T10:25:22;11.60;99.90
20680;DHT22;10499;47.494;7.608;2022-11-15T10:28:00;11.50;99.90
20680;DHT22;10499;47.494;7.608;2022-11-15T10:30:43;11.60;99.90
20680;DHT22;10499;47.494;7.608;2022-11-15T10:38:58;11.90;99.90
20680;DHT22;10499;47.494;7.608;2022-11-15T10:44:28;12.00;99.90
20680;DHT22;10499;47.494;7.608;2022-11-15T10:49:31;12.20;99.90
20680;DHT22;10499;47.494;7.608;2022-11-15T10:52:18;12.40;99.90
20680;DHT22;10499;47.494;7.608;2022-11-15T10:57:30;12.50;99.90
20680;DHT22;10499;47.494;7.608;2022-11-15T11:00:37;12.50;99.90
20680;DHT22;10499;47.494;7.608;2022-11-15T11:03:34;12.70;99.90
20680;DHT22;10499;47.494;7.608;2022-11-15T11:08:37;12.60;99.90
20680;DHT22;10499;47.494;7.608;2022-11-15T11:11:04;12.50;99.90
20680;DHT22;10499;47.494;7.608;2022-11-15T11:13:35;12.50;99.90
20680;DHT22;10499;47.494;7.608;2022-11-15T11:35:09;13.70;99.90
20680;DHT22;10499;47.494;7.608;2022-11-15T11:37:53;13.90;99.90
20680;DHT22;10499;47.494;7.608;2022-11-15T11:48:42;13.90;99.90
20680;DHT22;10499;47.494;7.608;2022-11-15T11:54:00;14.00;99.90
20680;DHT22;10499;47.494;7.608;2022-11-15T11:56:31;14.30;99.90
20680;DHT22;10499;47.494;7.608;2022-11-15T12:04:19;14.10;99.90
20680;DHT22;10499;47.494;7.608;2022-11-15T12:06:57;14.00;99.90
20680;DHT22;10499;47.494;7.608;2022-11-15T12:09:38;13.90;99.90
20680;DHT22;10499;47.494;7.608;2022-11-15T12:15:31;13.90;99.90
20680;DHT22;10499;47.494;7.608;2022-11-15T12:18:00;13.90;99.90
20680;DHT22;10499;47.494;7.608;2022-11-15T12:20:32;13.90;99.90
20680;DHT22;10499;47.494;7.608;2022-11-15T12:23:12;13.80;99.90
20680;DHT22;10499;47.494;7.608;2022-11-15T12:26:05;13.50;99.90
20680;DHT22;10499;47.494;7.608;2022-11-15T12:31:15;13.50;99.90
20680;DHT22;10499;47.494;7.608;2022-11-15T12:33:43;13.70;99.90
20680;DHT22;10499;47.494;7.608;2022-11-15T12:41:22;13.70;99.90
20680;DHT22;10499;47.494;7.608;2022-11-15T12:43:48;13.60;99.90
20680;DHT22;10499;47.494;7.608;2022-11-15T12:49:02;13.50;99.90
20680;DHT22;10499;47.494;7.608;2022-11-15T12:59:58;13.30;99.90
20680;DHT22;10499;47.494;7.608;2022-11-15T13:02:44;13.20;99.90
20680;DHT22;10499;47.494;7.608;2022-11-15T13:17:45;13.20;99.90
20680;DHT22;10499;47.494;7.608;2022-11-15T13:23:01;13.20;99.90
20680;DHT22;10499;47.494;7.608;2022-11-15T13:27:53;13.50;99.90
20680;DHT22;10499;47.494;7.608;2022-11-15T13:30:25;13.40;99.90
20680;DHT22;10499;47.494;7.608;2022-11-15T13:32:52;13.40;99.90
20680;DHT22;10499;47.494;7.608;2022-11-15T13:35:28;13.30;99.90
20680;DHT22;10499;47.494;7.608;2022-11-15T13:37:55;13.30;99.90
20680;DHT22;10499;47.494;7.608;2022-11-15T13:42:47;13.00;99.90
20680;DHT22;10499;47.494;7.608;2022-11-15T13:45:18;13.00;99.90
20680;DHT22;10499;47.494;7.608;2022-11-15T13:47:44;13.10;99.90
20680;DHT22;10499;47.494;7.608;2022-11-15T13:50:13;13.00;99.90
20680;DHT22;10499;47.494;7.608;2022-11-15T13:52:41;13.00;99.90
20680;DHT22;10499;47.494;7.608;2022-11-15T13:55:22;13.10;99.90
20680;DHT22;10499;47.494;7.608;2022-11-15T13:57:54;13.10;99.90
20680;DHT22;10499;47.494;7.608;2022-11-15T14:00:37;13.00;99.90
20680;DHT22;10499;47.494;7.608;2022-11-15T14:03:22;12.90;99.90
20680;DHT22;10499;47.494;7.608;2022-11-15T14:06:06;12.80;99.90
20680;DHT22;10499;47.494;7.608;2022-11-15T14:11:38;12.60;99.90
20680;DHT22;10499;47.494;7.608;2022-11-15T14:14:24;12.60;99.90
20680;DHT22;10499;47.494;7.608;2022-11-15T14:17:20;12.60;99.90
20680;DHT22;10499;47.494;7.608;2022-11-15T14:19:45;12.70;99.90
20680;DHT22;10499;47.494;7.608;2022-11-15T14:22:15;12.60;99.90
20680;DHT22;10499;47.494;7.608;2022-11-15T14:24:44;12.60;99.90
20680;DHT22;10499;47.494;7.608;2022-11-15T14:27:25;12.60;99.90
20680;DHT22;10499;47.494;7.608;2022-11-15T14:29:54;12.60;99.90
20680;DHT22;10499;47.494;7.608;2022-11-15T14:32:25;12.60;99.90
20680;DHT22;10499;47.494;7.608;2022-11-15T14:35:02;12.50;99.90
20680;DHT22;10499;47.494;7.608;2022-11-15T14:37:31;12.50;99.90
20680;DHT22;10499;47.494;7.608;2022-11-15T14:39:59;12.50;99.90
20680;DHT22;10499;47.494;7.608;2022-11-15T14:42:25;12.50;99.90
20680;DHT22;10499;47.494;7.608;2022-11-15T14:44:51;12.50;99.90
20680;DHT22;10499;47.494;7.608;2022-11-15T14:47:17;12.50;99.90
20680;DHT22;10499;47.494;7.608;2022-11-15T14:49:43;12.50;99.90
20680;DHT22;10499;47.494;7.608;2022-11-15T14:52:28;12.50;99.90
20680;DHT22;10499;47.494;7.608;2022-11-15T14:54:55;12.50;99.90
20680;DHT22;10499;47.494;7.608;2022-11-15T14:57:21;12.40;99.90
20680;DHT22;10499;47.494;7.608;2022-11-15T14:59:47;12.40;99.90
20680;DHT22;10499;47.494;7.608;2022-11-15T15:02:21;12.30;99.90
20680;DHT22;10499;47.494;7.608;2022-11-15T15:04:47;12.30;99.90
20680;DHT22;10499;47.494;7.608;2022-11-15T15:07:13;12.30;99.90
20680;DHT22;10499;47.494;7.608;2022-11-15T15:09:39;12.30;99.90
20680;DHT22;10499;47.494;7.608;2022-11-15T15:12:14;12.30;99.90
20680;DHT22;10499;47.494;7.608;2022-11-15T15:14:40;12.30;99.90
20680;DHT22;10499;47.494;7.608;2022-11-15T15:17:06;12.20;99.90
20680;DHT22;10499;47.494;7.608;2022-11-15T15:19:31;12.10;99.90
20680;DHT22;10499;47.494;7.608;2022-11-15T15:21:57;12.10;99.90
20680;DHT22;10499;47.494;7.608;2022-11-15T15:24:23;12.00;99.90
20680;DHT22;10499;47.494;7.608;2022-11-15T15:26:48;12.00;99.90
20680;DHT22;10499;47.494;7.608;2022-11-15T15:29:14;11.90;99.90
20680;DHT22;10499;47.494;7.608;2022-11-15T15:31:39;11.90;99.90
20680;DHT22;10499;47.494;7.608;2022-11-15T15:34:05;11.90;99.90
20680;DHT22;10499;47.494;7.608;2022-11-15T15:36:31;11.90;99.90
20680;DHT22;10499;47.494;7.608;2022-11-15T15:38:56;12.00;99.90
20680;DHT22;10499;47.494;7.608;2022-11-15T15:41:23;11.80;99.90
20680;DHT22;10499;47.494;7.608;2022-11-15T15:43:48;11.80;99.90
20680;DHT22;10499;47.494;7.608;2022-11-15T15:46:16;11.80;99.90
20680;DHT22;10499;47.494;7.608;2022-11-15T15:48:42;11.80;99.90
20680;DHT22;10499;47.494;7.608;2022-11-15T15:51:08;11.80;99.90
20680;DHT22;10499;47.494;7.608;2022-11-15T15:53:34;11.80;99.90
20680;DHT22;10499;47.494;7.608;2022-11-15T15:56:00;11.80;99.90
20680;DHT22;10499;47.494;7.608;2022-11-15T15:58:25;11.80;99.90
20680;DHT22;10499;47.494;7.608;2022-11-15T16:00:51;11.70;99.90
20680;DHT22;10499;47.494;7.608;2022-11-15T16:03:17;11.70;99.90
20680;DHT22;10499;47.494;7.608;2022-11-15T16:05:42;11.70;99.90
20680;DHT22;10499;47.494;7.608;2022-11-15T16:08:22;11.70;99.90
20680;DHT22;10499;47.494;7.608;2022-11-15T16:10:48;11.50;99.90
20680;DHT22;10499;47.494;7.608;2022-11-15T16:13:14;11.50;99.90
20680;DHT22;10499;47.494;7.608;2022-11-15T16:15:40;11.50;99.90
20680;DHT22;10499;47.494;7.608;2022-11-15T16:18:14;11.50;99.90
20680;DHT22;10499;47.494;7.608;2022-11-15T16:20:41;11.50;99.90
20680;DHT22;10499;47.494;7.608;2022-11-15T16:23:12;11.50;99.90
20680;DHT22;10499;47.494;7.608;2022-11-15T16:25:49;11.50;99.90
20680;DHT22;10499;47.494;7.608;2022-11-15T16:28:21;11.40;99.90
20680;DHT22;10499;47.494;7.608;2022-11-15T16:30:48;11.40;99.90
20680;DHT22;10499;47.494;7.608;2022-11-15T16:33:14;11.40;99.90
20680;DHT22;10499;47.494;7.608;2022-11-15T16:35:40;11.40;99.90
20680;DHT22;10499;47.494;7.608;2022-11-15T16:38:07;11.40;99.90
20680;DHT22;10499;47.494;7.608;2022-11-15T16:40:34;11.40;99.90
20680;DHT22;10499;47.494;7.608;2022-11-15T16:43:00;11.40;99.90
20680;DHT22;10499;47.494;7.608;2022-11-15T16:45:28;11.40;99.90
20680;DHT22;10499;47.494;7.608;2022-11-15T16:47:54;11.40;99.90
20680;DHT22;10499;47.494;7.608;2022-11-15T16:50:28;11.40;99.90
20680;DHT22;10499;47.494;7.608;2022-11-15T16:52:56;11.20;99.90
20680;DHT22;10499;47.494;7.608;2022-11-15T16:55:24;11.20;99.90
20680;DHT22;10499;47.494;7.608;2022-11-15T16:57:50;11.20;99.90
20680;DHT22;10499;47.494;7.608;2022-11-15T17:00:18;11.20;99.90
20680;DHT22;10499;47.494;7.608;2022-11-15T17:02:53;11.30;99.90
20680;DHT22;10499;47.494;7.608;2022-11-15T17:05:23;11.10;99.90
20680;DHT22;10499;47.494;7.608;2022-11-15T17:07:50;11.10;99.90
20680;DHT22;10499;47.494;7.608;2022-11-15T17:10:20;11.10;99.90
20680;DHT22;10499;47.494;7.608;2022-11-15T17:12:47;11.10;99.90
20680;DHT22;10499;47.494;7.608;2022-11-15T17:15:18;11.20;99.90
20680;DHT22;10499;47.494;7.608;2022-11-15T17:17:44;11.20;99.90
20680;DHT22;10499;47.494;7.608;2022-11-15T17:20:16;11.20;99.90
20680;DHT22;10499;47.494;7.608;2022-11-15T17:22:42;11.10;99.90
20680;DHT22;10499;47.494;7.608;2022-11-15T17:25:08;11.10;99.90
20680;DHT22;10499;47.494;7.608;2022-11-15T17:27:34;11.10;99.90
20680;DHT22;10499;47.494;7.608;2022-11-15T17:30:00;11.10;99.90
20680;DHT22;10499;47.494;7.608;2022-11-15T17:32:26;11.10;99.90
20680;DHT22;10499;47.494;7.608;2022-11-15T17:34:52;11.20;99.90
20680;DHT22;10499;47.494;7.608;2022-11-15T17:37:18;11.10;99.90
20680;DHT22;10499;47.494;7.608;2022-11-15T17:39:43;11.00;99.90
20680;DHT22;10499;47.494;7.608;2022-11-15T17:42:09;11.00;99.90
20680;DHT22;10499;47.494;7.608;2022-11-15T17:44:34;11.00;99.90
20680;DHT22;10499;47.494;7.608;2022-11-15T17:47:00;11.00;99.90
20680;DHT22;10499;47.494;7.608;2022-11-15T17:49:28;11.00;99.90
20680;DHT22;10499;47.494;7.608;2022-11-15T17:51:54;11.10;99.90
20680;DHT22;10499;47.494;7.608;2022-11-15T17:54:19;11.00;99.90
20680;DHT22;10499;47.494;7.608;2022-11-15T17:56:45;10.90;99.90
20680;DHT22;10499;47.494;7.608;2022-11-15T17:59:11;10.90;99.90
20680;DHT22;10499;47.494;7.608;2022-11-15T18:01:37;11.00;99.90
20680;DHT22;10499;47.494;7.608;2022-11-15T18:04:06;11.00;99.90
20680;DHT22;10499;47.494;7.608;2022-11-15T18:06:33;11.00;99.90
20680;DHT22;10499;47.494;7.608;2022-11-15T18:09:02;11.00;99.90
20680;DHT22;10499;47.494;7.608;2022-11-15T18:11:35;11.00;99.90